sensor_id;sensor_type;location;lat;lon;timestamp;P1;durP1;ratioP1;P2;durP2;ratioP2
21562;SDS011;10942;47.894;11.424;2023-04-03T00:00:02;10.10;;;6.65;;
21562;SDS011;10942;47.894;11.424;2023-04-03T00:02:31;12.15;;;7.00;;
21562;SDS011;10942;47.894;11.424;2023-04-03T00:04:57;12.55;;;7.90;;
21562;SDS011;10942;47.894;11.424;2023-04-03T00:07:23;10.25;;;6.25;;
21562;SDS011;10942;47.894;11.424;2023-04-03T00:09:48;11.55;;;7.82;;
21562;SDS011;10942;47.894;11.424;2023-04-03T00:12:14;11.48;;;7.70;;
21562;SDS011;10942;47.894;11.424;2023-04-03T00:14:40;12.20;;;7.43;;
21562;SDS011;10942;47.894;11.424;2023-04-03T00:17:06;9.40;;;6.65;;
21562;SDS011;10942;47.894;11.424;2023-04-03T00:19:32;12.95;;;7.88;;
21562;SDS011;10942;47.894;11.424;2023-04-03T00:21:57;13.57;;;7.40;;
21562;SDS011;10942;47.894;11.424;2023-04-03T00:24:23;10.00;;;6.78;;
21562;SDS011;10942;47.894;11.424;2023-04-03T00:26:49;11.70;;;7.13;;
21562;SDS011;10942;47.894;11.424;2023-04-03T00:29:15;11.88;;;6.60;;
21562;SDS011;10942;47.894;11.424;2023-04-03T00:31:40;10.23;;;7.35;;
21562;SDS011;10942;47.894;11.424;2023-04-03T00:34:06;13.75;;;7.63;;
21562;SDS011;10942;47.894;11.424;2023-04-03T00:36:32;11.77;;;7.45;;
21562;SDS011;10942;47.894;11.424;2023-04-03T00:38:58;12.88;;;7.60;;
21562;SDS011;10942;47.894;11.424;2023-04-03T00:41:24;11.38;;;7.18;;
21562;SDS011;10942;47.894;11.424;2023-04-03T00:43:50;11.95;;;7.53;;
21562;SDS011;10942;47.894;11.424;2023-04-03T00:46:16;11.35;;;7.55;;
21562;SDS011;10942;47.894;11.424;2023-04-03T00:48:45;11.27;;;7.22;;
21562;SDS011;10942;47.894;11.424;2023-04-03T00:51:23;14.05;;;8.27;;
21562;SDS011;10942;47.894;11.424;2023-04-03T00:53:53;12.43;;;7.57;;
21562;SDS011;10942;47.894;11.424;2023-04-03T00:56:23;15.52;;;8.43;;
21562;SDS011;10942;47.894;11.424;2023-04-03T01:01:33;13.90;;;8.20;;
21562;SDS011;10942;47.894;11.424;2023-04-03T01:03:59;13.73;;;7.80;;
21562;SDS011;10942;47.894;11.424;2023-04-03T01:06:27;14.68;;;8.05;;
21562;SDS011;10942;47.894;11.424;2023-04-03T01:09:05;13.27;;;8.07;;
21562;SDS011;10942;47.894;11.424;2023-04-03T01:11:31;11.52;;;8.05;;
21562;SDS011;10942;47.894;11.424;2023-04-03T01:13:59;12.90;;;8.30;;
21562;SDS011;10942;47.894;11.424;2023-04-03T01:16:26;10.70;;;7.53;;
21562;SDS011;10942;47.894;11.424;2023-04-03T01:18:57;12.65;;;8.20;;
21562;SDS011;10942;47.894;11.424;2023-04-03T01:24:13;12.43;;;7.70;;
21562;SDS011;10942;47.894;11.424;2023-04-03T01:26:53;11.02;;;7.07;;
21562;SDS011;10942;47.894;11.424;2023-04-03T01:29:20;12.40;;;7.55;;
21562;SDS011;10942;47.894;11.424;2023-04-03T01:31:56;11.15;;;7.15;;
21562;SDS011;10942;47.894;11.424;2023-04-03T01:34:24;12.27;;;7.85;;
21562;SDS011;10942;47.894;11.424;2023-04-03T01:36:51;11.55;;;7.55;;
21562;SDS011;10942;47.894;11.424;2023-04-03T01:39:18;13.57;;;9.05;;
21562;SDS011;10942;47.894;11.424;2023-04-03T01:41:45;12.95;;;8.32;;
21562;SDS011;10942;47.894;11.424;2023-04-03T01:44:21;12.10;;;8.13;;
21562;SDS011;10942;47.894;11.424;2023-04-03T01:46:47;16.00;;;8.30;;
21562;SDS011;10942;47.894;11.424;2023-04-03T01:49:13;12.93;;;8.10;;
21562;SDS011;10942;47.894;11.424;2023-04-03T01:51:38;12.75;;;7.70;;
21562;SDS011;10942;47.894;11.424;2023-04-03T01:54:04;11.80;;;7.68;;
21562;SDS011;10942;47.894;11.424;2023-04-03T01:56:30;11.85;;;8.13;;
21562;SDS011;10942;47.894;11.424;2023-04-03T01:58:56;11.25;;;7.45;;
21562;SDS011;10942;47.894;11.424;2023-04-03T02:01:21;11.65;;;7.28;;
21562;SDS011;10942;47.894;11.424;2023-04-03T02:03:47;11.52;;;6.43;;
21562;SDS011;10942;47.894;11.424;2023-04-03T02:06:13;9.15;;;6.10;;
21562;SDS011;10942;47.894;11.424;2023-04-03T02:08:39;8.48;;;5.70;;
21562;SDS011;10942;47.894;11.424;2023-04-03T02:11:06;9.63;;;5.80;;
21562;SDS011;10942;47.894;11.424;2023-04-03T02:13:32;9.65;;;5.57;;
21562;SDS011;10942;47.894;11.424;2023-04-03T02:15:58;8.55;;;4.97;;
21562;SDS011;10942;47.894;11.424;2023-04-03T02:18:24;8.15;;;4.88;;
21562;SDS011;10942;47.894;11.424;2023-04-03T02:20:50;8.70;;;5.20;;
21562;SDS011;10942;47.894;11.424;2023-04-03T02:23:16;8.77;;;5.25;;
21562;SDS011;10942;47.894;11.424;2023-04-03T02:25:42;8.80;;;5.03;;
21562;SDS011;10942;47.894;11.424;2023-04-03T02:28:08;9.25;;;5.45;;
21562;SDS011;10942;47.894;11.424;2023-04-03T02:30:34;8.80;;;5.07;;
21562;SDS011;10942;47.894;11.424;2023-04-03T02:33:00;10.45;;;5.45;;
21562;SDS011;10942;47.894;11.424;2023-04-03T02:35:26;8.25;;;5.45;;
21562;SDS011;10942;47.894;11.424;2023-04-03T02:37:54;9.63;;;5.72;;
21562;SDS011;10942;47.894;11.424;2023-04-03T02:40:21;7.68;;;5.20;;
21562;SDS011;10942;47.894;11.424;2023-04-03T02:42:47;9.07;;;5.47;;
21562;SDS011;10942;47.894;11.424;2023-04-03T02:45:13;7.53;;;5.22;;
21562;SDS011;10942;47.894;11.424;2023-04-03T02:47:38;12.60;;;5.95;;
21562;SDS011;10942;47.894;11.424;2023-04-03T02:50:04;8.65;;;4.97;;
21562;SDS011;10942;47.894;11.424;2023-04-03T02:52:31;8.45;;;5.68;;
21562;SDS011;10942;47.894;11.424;2023-04-03T02:54:57;8.50;;;5.70;;
21562;SDS011;10942;47.894;11.424;2023-04-03T02:57:23;10.27;;;5.63;;
21562;SDS011;10942;47.894;11.424;2023-04-03T02:59:49;8.60;;;5.78;;
21562;SDS011;10942;47.894;11.424;2023-04-03T03:02:14;8.38;;;5.25;;
21562;SDS011;10942;47.894;11.424;2023-04-03T03:04:40;9.45;;;5.97;;
21562;SDS011;10942;47.894;11.424;2023-04-03T03:07:06;8.13;;;5.53;;
21562;SDS011;10942;47.894;11.424;2023-04-03T03:09:32;9.02;;;5.60;;
21562;SDS011;10942;47.894;11.424;2023-04-03T03:11:58;8.90;;;5.65;;
21562;SDS011;10942;47.894;11.424;2023-04-03T03:14:23;11.15;;;6.22;;
21562;SDS011;10942;47.894;11.424;2023-04-03T03:16:49;10.90;;;6.30;;
21562;SDS011;10942;47.894;11.424;2023-04-03T03:19:15;9.27;;;6.18;;
21562;SDS011;10942;47.894;11.424;2023-04-03T03:21:41;10.55;;;6.63;;
21562;SDS011;10942;47.894;11.424;2023-04-03T03:24:06;9.18;;;6.10;;
21562;SDS011;10942;47.894;11.424;2023-04-03T03:26:32;10.75;;;5.53;;
21562;SDS011;10942;47.894;11.424;2023-04-03T03:28:58;9.00;;;6.10;;
21562;SDS011;10942;47.894;11.424;2023-04-03T03:31:25;10.63;;;6.32;;
21562;SDS011;10942;47.894;11.424;2023-04-03T03:33:51;10.32;;;6.00;;
21562;SDS011;10942;47.894;11.424;2023-04-03T03:36:17;8.75;;;5.93;;
21562;SDS011;10942;47.894;11.424;2023-04-03T03:38:43;11.95;;;6.40;;
21562;SDS011;10942;47.894;11.424;2023-04-03T03:41:09;11.38;;;6.50;;
21562;SDS011;10942;47.894;11.424;2023-04-03T03:43:35;8.68;;;5.85;;
21562;SDS011;10942;47.894;11.424;2023-04-03T03:46:03;9.35;;;6.20;;
21562;SDS011;10942;47.894;11.424;2023-04-03T03:48:29;9.40;;;6.10;;
21562;SDS011;10942;47.894;11.424;2023-04-03T03:50:55;9.27;;;5.82;;
21562;SDS011;10942;47.894;11.424;2023-04-03T03:53:24;10.10;;;6.18;;
21562;SDS011;10942;47.894;11.424;2023-04-03T03:55:53;9.30;;;5.57;;
21562;SDS011;10942;47.894;11.424;2023-04-03T03:58:21;9.50;;;5.93;;
21562;SDS011;10942;47.894;11.424;2023-04-03T04:00:47;12.15;;;6.63;;
21562;SDS011;10942;47.894;11.424;2023-04-03T04:03:13;11.00;;;6.03;;
21562;SDS011;10942;47.894;11.424;2023-04-03T04:05:39;9.95;;;6.30;;
21562;SDS011;10942;47.894;11.424;2023-04-03T04:08:05;9.50;;;6.13;;
21562;SDS011;10942;47.894;11.424;2023-04-03T04:10:31;9.52;;;6.00;;
21562;SDS011;10942;47.894;11.424;2023-04-03T04:12:58;11.48;;;6.85;;
21562;SDS011;10942;47.894;11.424;2023-04-03T04:15:26;10.32;;;6.82;;
21562;SDS011;10942;47.894;11.424;2023-04-03T04:17:52;11.15;;;6.30;;
21562;SDS011;10942;47.894;11.424;2023-04-03T04:20:19;11.00;;;6.53;;
21562;SDS011;10942;47.894;11.424;2023-04-03T04:22:46;9.93;;;6.60;;
21562;SDS011;10942;47.894;11.424;2023-04-03T04:25:12;9.40;;;6.53;;
21562;SDS011;10942;47.894;11.424;2023-04-03T04:27:39;18.65;;;10.80;;
21562;SDS011;10942;47.894;11.424;2023-04-03T04:30:05;33.72;;;17.73;;
21562;SDS011;10942;47.894;11.424;2023-04-03T04:32:32;12.98;;;8.60;;
21562;SDS011;10942;47.894;11.424;2023-04-03T04:34:58;37.30;;;25.00;;
21562;SDS011;10942;47.894;11.424;2023-04-03T04:37:24;16.27;;;11.65;;
21562;SDS011;10942;47.894;11.424;2023-04-03T04:39:51;20.00;;;12.32;;
21562;SDS011;10942;47.894;11.424;2023-04-03T04:42:17;16.30;;;11.43;;
21562;SDS011;10942;47.894;11.424;2023-04-03T04:44:45;32.13;;;21.33;;
21562;SDS011;10942;47.894;11.424;2023-04-03T04:47:13;18.08;;;12.30;;
21562;SDS011;10942;47.894;11.424;2023-04-03T04:49:40;21.00;;;12.27;;
21562;SDS011;10942;47.894;11.424;2023-04-03T04:52:06;19.55;;;15.07;;
21562;SDS011;10942;47.894;11.424;2023-04-03T04:54:33;13.15;;;8.75;;
21562;SDS011;10942;47.894;11.424;2023-04-03T04:56:59;15.68;;;8.65;;
21562;SDS011;10942;47.894;11.424;2023-04-03T04:59:25;11.10;;;7.60;;
21562;SDS011;10942;47.894;11.424;2023-04-03T05:01:54;11.32;;;7.05;;
21562;SDS011;10942;47.894;11.424;2023-04-03T05:04:19;11.88;;;6.80;;
21562;SDS011;10942;47.894;11.424;2023-04-03T05:06:49;11.43;;;7.13;;
21562;SDS011;10942;47.894;11.424;2023-04-03T05:09:20;11.68;;;7.07;;
21562;SDS011;10942;47.894;11.424;2023-04-03T05:11:48;13.30;;;8.68;;
21562;SDS011;10942;47.894;11.424;2023-04-03T05:14:15;10.43;;;7.10;;
21562;SDS011;10942;47.894;11.424;2023-04-03T05:16:42;10.70;;;7.13;;
21562;SDS011;10942;47.894;11.424;2023-04-03T05:19:07;11.63;;;7.75;;
21562;SDS011;10942;47.894;11.424;2023-04-03T05:21:33;12.52;;;7.70;;
21562;SDS011;10942;47.894;11.424;2023-04-03T05:24:04;11.57;;;7.70;;
21562;SDS011;10942;47.894;11.424;2023-04-03T05:26:36;13.68;;;7.50;;
21562;SDS011;10942;47.894;11.424;2023-04-03T05:29:02;15.02;;;8.43;;
21562;SDS011;10942;47.894;11.424;2023-04-03T05:31:29;9.65;;;6.57;;
21562;SDS011;10942;47.894;11.424;2023-04-03T05:33:55;9.60;;;6.85;;
21562;SDS011;10942;47.894;11.424;2023-04-03T05:36:22;11.70;;;6.55;;
21562;SDS011;10942;47.894;11.424;2023-04-03T05:38:52;13.23;;;7.43;;
21562;SDS011;10942;47.894;11.424;2023-04-03T05:41:18;11.30;;;7.00;;
21562;SDS011;10942;47.894;11.424;2023-04-03T05:43:46;10.98;;;7.20;;
21562;SDS011;10942;47.894;11.424;2023-04-03T05:46:13;11.60;;;6.85;;
21562;SDS011;10942;47.894;11.424;2023-04-03T05:48:43;10.70;;;6.72;;
21562;SDS011;10942;47.894;11.424;2023-04-03T05:51:16;9.73;;;6.63;;
21562;SDS011;10942;47.894;11.424;2023-04-03T05:53:55;11.40;;;6.57;;
21562;SDS011;10942;47.894;11.424;2023-04-03T05:56:28;12.48;;;6.72;;
21562;SDS011;10942;47.894;11.424;2023-04-03T05:58:53;15.88;;;7.63;;
21562;SDS011;10942;47.894;11.424;2023-04-03T06:01:20;10.45;;;6.88;;
21562;SDS011;10942;47.894;11.424;2023-04-03T06:03:46;12.25;;;8.20;;
21562;SDS011;10942;47.894;11.424;2023-04-03T06:06:15;12.20;;;8.50;;
21562;SDS011;10942;47.894;11.424;2023-04-03T06:08:40;10.90;;;7.72;;
21562;SDS011;10942;47.894;11.424;2023-04-03T06:11:06;10.65;;;6.82;;
21562;SDS011;10942;47.894;11.424;2023-04-03T06:13:33;8.63;;;6.50;;
21562;SDS011;10942;47.894;11.424;2023-04-03T06:16:00;9.13;;;5.90;;
21562;SDS011;10942;47.894;11.424;2023-04-03T06:18:27;14.40;;;8.80;;
21562;SDS011;10942;47.894;11.424;2023-04-03T06:20:54;11.55;;;7.82;;
21562;SDS011;10942;47.894;11.424;2023-04-03T06:23:20;10.48;;;7.55;;
21562;SDS011;10942;47.894;11.424;2023-04-03T06:25:45;11.68;;;7.07;;
21562;SDS011;10942;47.894;11.424;2023-04-03T06:28:12;8.15;;;6.18;;
21562;SDS011;10942;47.894;11.424;2023-04-03T06:30:38;9.27;;;6.80;;
21562;SDS011;10942;47.894;11.424;2023-04-03T06:33:03;8.15;;;5.57;;
21562;SDS011;10942;47.894;11.424;2023-04-03T06:35:29;9.57;;;5.57;;
21562;SDS011;10942;47.894;11.424;2023-04-03T06:37:56;9.40;;;5.88;;
21562;SDS011;10942;47.894;11.424;2023-04-03T06:40:23;8.07;;;5.82;;
21562;SDS011;10942;47.894;11.424;2023-04-03T06:42:51;10.35;;;5.93;;
21562;SDS011;10942;47.894;11.424;2023-04-03T06:45:18;9.18;;;5.68;;
21562;SDS011;10942;47.894;11.424;2023-04-03T06:47:44;8.15;;;5.13;;
21562;SDS011;10942;47.894;11.424;2023-04-03T06:50:10;9.95;;;5.03;;
21562;SDS011;10942;47.894;11.424;2023-04-03T06:52:39;9.88;;;5.00;;
21562;SDS011;10942;47.894;11.424;2023-04-03T06:55:05;7.38;;;4.78;;
21562;SDS011;10942;47.894;11.424;2023-04-03T06:57:31;9.23;;;5.53;;
21562;SDS011;10942;47.894;11.424;2023-04-03T06:59:57;10.13;;;5.28;;
21562;SDS011;10942;47.894;11.424;2023-04-03T07:02:23;8.40;;;4.93;;
21562;SDS011;10942;47.894;11.424;2023-04-03T07:04:48;8.43;;;4.90;;
21562;SDS011;10942;47.894;11.424;2023-04-03T07:07:14;6.55;;;4.20;;
21562;SDS011;10942;47.894;11.424;2023-04-03T07:09:40;7.25;;;4.43;;
21562;SDS011;10942;47.894;11.424;2023-04-03T07:12:07;6.30;;;4.72;;
21562;SDS011;10942;47.894;11.424;2023-04-03T07:14:33;8.25;;;4.50;;
21562;SDS011;10942;47.894;11.424;2023-04-03T07:16:58;7.15;;;4.10;;
21562;SDS011;10942;47.894;11.424;2023-04-03T07:19:24;6.35;;;4.30;;
21562;SDS011;10942;47.894;11.424;2023-04-03T07:21:53;5.93;;;4.22;;
21562;SDS011;10942;47.894;11.424;2023-04-03T07:24:19;6.15;;;3.90;;
21562;SDS011;10942;47.894;11.424;2023-04-03T07:26:48;6.18;;;4.43;;
21562;SDS011;10942;47.894;11.424;2023-04-03T07:29:14;6.50;;;4.00;;
21562;SDS011;10942;47.894;11.424;2023-04-03T07:31:40;6.53;;;4.25;;
21562;SDS011;10942;47.894;11.424;2023-04-03T07:34:06;7.15;;;4.63;;
21562;SDS011;10942;47.894;11.424;2023-04-03T07:36:32;5.60;;;4.28;;
21562;SDS011;10942;47.894;11.424;2023-04-03T07:38:58;10.52;;;5.45;;
21562;SDS011;10942;47.894;11.424;2023-04-03T07:41:24;8.00;;;4.50;;
21562;SDS011;10942;47.894;11.424;2023-04-03T07:43:50;7.93;;;4.75;;
21562;SDS011;10942;47.894;11.424;2023-04-03T07:46:15;6.03;;;4.18;;
21562;SDS011;10942;47.894;11.424;2023-04-03T07:48:42;6.00;;;4.30;;
21562;SDS011;10942;47.894;11.424;2023-04-03T07:51:09;7.38;;;4.30;;
21562;SDS011;10942;47.894;11.424;2023-04-03T07:53:35;6.70;;;3.97;;
21562;SDS011;10942;47.894;11.424;2023-04-03T07:56:01;8.20;;;3.92;;
21562;SDS011;10942;47.894;11.424;2023-04-03T07:58:28;6.57;;;4.50;;
21562;SDS011;10942;47.894;11.424;2023-04-03T08:00:53;6.40;;;3.35;;
21562;SDS011;10942;47.894;11.424;2023-04-03T08:03:19;6.22;;;3.83;;
21562;SDS011;10942;47.894;11.424;2023-04-03T08:05:46;5.57;;;3.72;;
21562;SDS011;10942;47.894;11.424;2023-04-03T08:08:13;7.22;;;3.78;;
21562;SDS011;10942;47.894;11.424;2023-04-03T08:10:41;6.50;;;4.00;;
21562;SDS011;10942;47.894;11.424;2023-04-03T08:13:07;4.90;;;3.03;;
21562;SDS011;10942;47.894;11.424;2023-04-03T08:15:34;7.28;;;3.50;;
21562;SDS011;10942;47.894;11.424;2023-04-03T08:18:01;5.03;;;3.20;;
21562;SDS011;10942;47.894;11.424;2023-04-03T08:20:28;5.07;;;3.17;;
21562;SDS011;10942;47.894;11.424;2023-04-03T08:22:54;5.45;;;3.20;;
21562;SDS011;10942;47.894;11.424;2023-04-03T08:25:20;5.20;;;2.97;;
21562;SDS011;10942;47.894;11.424;2023-04-03T08:27:46;5.05;;;3.13;;
21562;SDS011;10942;47.894;11.424;2023-04-03T08:30:12;5.05;;;3.10;;
21562;SDS011;10942;47.894;11.424;2023-04-03T08:32:38;9.07;;;3.63;;
21562;SDS011;10942;47.894;11.424;2023-04-03T08:35:06;4.95;;;2.67;;
21562;SDS011;10942;47.894;11.424;2023-04-03T08:37:34;5.10;;;3.08;;
21562;SDS011;10942;47.894;11.424;2023-04-03T08:40:02;5.85;;;3.25;;
21562;SDS011;10942;47.894;11.424;2023-04-03T08:50:23;4.57;;;2.70;;
21562;SDS011;10942;47.894;11.424;2023-04-03T08:53:01;10.40;;;4.03;;
21562;SDS011;10942;47.894;11.424;2023-04-03T08:55:33;5.30;;;3.40;;
21562;SDS011;10942;47.894;11.424;2023-04-03T08:58:06;5.93;;;3.08;;
21562;SDS011;10942;47.894;11.424;2023-04-03T09:03:14;5.60;;;2.83;;
21562;SDS011;10942;47.894;11.424;2023-04-03T09:06:01;5.40;;;3.08;;
21562;SDS011;10942;47.894;11.424;2023-04-03T09:08:33;5.53;;;3.30;;
21562;SDS011;10942;47.894;11.424;2023-04-03T09:19:05;5.63;;;2.67;;
21562;SDS011;10942;47.894;11.424;2023-04-03T09:21:48;6.10;;;3.47;;
21562;SDS011;10942;47.894;11.424;2023-04-03T09:24:15;5.25;;;2.97;;
21562;SDS011;10942;47.894;11.424;2023-04-03T09:26:50;4.82;;;2.90;;
21562;SDS011;10942;47.894;11.424;2023-04-03T09:29:25;5.35;;;2.55;;
21562;SDS011;10942;47.894;11.424;2023-04-03T09:31:59;4.25;;;2.55;;
21562;SDS011;10942;47.894;11.424;2023-04-03T09:34:35;4.88;;;2.40;;
21562;SDS011;10942;47.894;11.424;2023-04-03T09:37:02;4.80;;;2.95;;
21562;SDS011;10942;47.894;11.424;2023-04-03T09:39:31;4.68;;;2.60;;
21562;SDS011;10942;47.894;11.424;2023-04-03T09:42:01;4.38;;;2.75;;
21562;SDS011;10942;47.894;11.424;2023-04-03T09:44:37;5.97;;;2.80;;
21562;SDS011;10942;47.894;11.424;2023-04-03T09:47:22;3.60;;;2.35;;
21562;SDS011;10942;47.894;11.424;2023-04-03T09:52:42;4.15;;;2.65;;
21562;SDS011;10942;47.894;11.424;2023-04-03T09:55:19;4.32;;;2.65;;
21562;SDS011;10942;47.894;11.424;2023-04-03T09:58:01;4.15;;;2.60;;
21562;SDS011;10942;47.894;11.424;2023-04-03T10:00:53;6.88;;;3.38;;
21562;SDS011;10942;47.894;11.424;2023-04-03T10:03:24;5.03;;;2.60;;
21562;SDS011;10942;47.894;11.424;2023-04-03T10:05:53;3.78;;;2.40;;
21562;SDS011;10942;47.894;11.424;2023-04-03T10:08:25;4.35;;;2.50;;
21562;SDS011;10942;47.894;11.424;2023-04-03T10:13:36;5.22;;;2.58;;
21562;SDS011;10942;47.894;11.424;2023-04-03T10:16:14;4.18;;;2.70;;
21562;SDS011;10942;47.894;11.424;2023-04-03T10:18:48;5.60;;;3.42;;
21562;SDS011;10942;47.894;11.424;2023-04-03T10:21:20;10.95;;;8.98;;
21562;SDS011;10942;47.894;11.424;2023-04-03T10:24:10;4.47;;;2.95;;
21562;SDS011;10942;47.894;11.424;2023-04-03T10:26:41;5.55;;;2.30;;
21562;SDS011;10942;47.894;11.424;2023-04-03T10:29:29;4.68;;;2.95;;
21562;SDS011;10942;47.894;11.424;2023-04-03T10:34:40;3.50;;;2.45;;
21562;SDS011;10942;47.894;11.424;2023-04-03T10:37:20;5.65;;;2.20;;
21562;SDS011;10942;47.894;11.424;2023-04-03T10:47:44;3.45;;;1.83;;
21562;SDS011;10942;47.894;11.424;2023-04-03T10:50:21;4.27;;;2.10;;
21562;SDS011;10942;47.894;11.424;2023-04-03T10:58:04;3.35;;;2.00;;
21562;SDS011;10942;47.894;11.424;2023-04-03T11:03:01;4.22;;;2.65;;
21562;SDS011;10942;47.894;11.424;2023-04-03T11:05:45;3.58;;;2.15;;
21562;SDS011;10942;47.894;11.424;2023-04-03T11:10:44;3.55;;;2.42;;
21562;SDS011;10942;47.894;11.424;2023-04-03T11:13:16;4.78;;;2.50;;
21562;SDS011;10942;47.894;11.424;2023-04-03T11:15:43;4.73;;;2.77;;
21562;SDS011;10942;47.894;11.424;2023-04-03T11:18:19;4.25;;;2.53;;
21562;SDS011;10942;47.894;11.424;2023-04-03T11:21:20;5.10;;;2.63;;
21562;SDS011;10942;47.894;11.424;2023-04-03T11:23:39;6.55;;;3.00;;
21562;SDS011;10942;47.894;11.424;2023-04-03T11:26:15;3.55;;;2.47;;
21562;SDS011;10942;47.894;11.424;2023-04-03T11:28:42;4.35;;;2.63;;
21562;SDS011;10942;47.894;11.424;2023-04-03T11:31:19;5.53;;;3.15;;
21562;SDS011;10942;47.894;11.424;2023-04-03T11:33:55;13.80;;;7.47;;
21562;SDS011;10942;47.894;11.424;2023-04-03T11:36:33;5.25;;;3.28;;
21562;SDS011;10942;47.894;11.424;2023-04-03T11:39:13;4.68;;;2.97;;
21562;SDS011;10942;47.894;11.424;2023-04-03T11:41:43;5.35;;;2.60;;
21562;SDS011;10942;47.894;11.424;2023-04-03T11:46:57;5.65;;;2.75;;
21562;SDS011;10942;47.894;11.424;2023-04-03T11:57:50;5.30;;;2.70;;
21562;SDS011;10942;47.894;11.424;2023-04-03T12:16:02;4.80;;;3.42;;
21562;SDS011;10942;47.894;11.424;2023-04-03T12:21:15;5.43;;;3.70;;
21562;SDS011;10942;47.894;11.424;2023-04-03T12:24:00;5.35;;;3.75;;
21562;SDS011;10942;47.894;11.424;2023-04-03T12:26:30;5.70;;;3.63;;
21562;SDS011;10942;47.894;11.424;2023-04-03T12:29:13;6.35;;;3.47;;
21562;SDS011;10942;47.894;11.424;2023-04-03T12:34:50;5.82;;;4.10;;
21562;SDS011;10942;47.894;11.424;2023-04-03T12:45:37;5.67;;;4.33;;
21562;SDS011;10942;47.894;11.424;2023-04-03T12:48:15;5.68;;;3.67;;
21562;SDS011;10942;47.894;11.424;2023-04-03T12:50:44;6.00;;;3.08;;
21562;SDS011;10942;47.894;11.424;2023-04-03T12:53:12;6.10;;;3.17;;
21562;SDS011;10942;47.894;11.424;2023-04-03T12:55:39;5.07;;;2.90;;
21562;SDS011;10942;47.894;11.424;2023-04-03T12:58:15;4.10;;;2.67;;
21562;SDS011;10942;47.894;11.424;2023-04-03T13:00:42;5.78;;;2.85;;
21562;SDS011;10942;47.894;11.424;2023-04-03T13:03:19;5.30;;;2.63;;
21562;SDS011;10942;47.894;11.424;2023-04-03T13:05:49;5.70;;;2.63;;
21562;SDS011;10942;47.894;11.424;2023-04-03T13:08:15;7.07;;;2.55;;
21562;SDS011;10942;47.894;11.424;2023-04-03T13:11:03;5.55;;;2.53;;
21562;SDS011;10942;47.894;11.424;2023-04-03T13:13:35;5.20;;;2.38;;
21562;SDS011;10942;47.894;11.424;2023-04-03T13:16:07;5.32;;;2.70;;
21562;SDS011;10942;47.894;11.424;2023-04-03T13:18:35;3.83;;;2.70;;
21562;SDS011;10942;47.894;11.424;2023-04-03T13:23:30;16.60;;;9.18;;
21562;SDS011;10942;47.894;11.424;2023-04-03T13:25:57;9.30;;;4.90;;
21562;SDS011;10942;47.894;11.424;2023-04-03T13:28:27;4.30;;;2.75;;
21562;SDS011;10942;47.894;11.424;2023-04-03T13:30:59;3.97;;;2.17;;
21562;SDS011;10942;47.894;11.424;2023-04-03T13:33:32;4.80;;;2.40;;
21562;SDS011;10942;47.894;11.424;2023-04-03T13:36:19;3.47;;;2.05;;
21562;SDS011;10942;47.894;11.424;2023-04-03T13:38:57;4.13;;;2.60;;
21562;SDS011;10942;47.894;11.424;2023-04-03T13:41:26;2.95;;;1.80;;
21562;SDS011;10942;47.894;11.424;2023-04-03T13:44:15;6.85;;;2.60;;
21562;SDS011;10942;47.894;11.424;2023-04-03T13:46:54;3.92;;;2.47;;
21562;SDS011;10942;47.894;11.424;2023-04-03T13:49:26;5.75;;;2.80;;
21562;SDS011;10942;47.894;11.424;2023-04-03T13:51:54;4.68;;;2.38;;
21562;SDS011;10942;47.894;11.424;2023-04-03T13:54:21;3.17;;;2.05;;
21562;SDS011;10942;47.894;11.424;2023-04-03T13:56:53;6.75;;;2.42;;
21562;SDS011;10942;47.894;11.424;2023-04-03T13:59:21;4.85;;;2.47;;
21562;SDS011;10942;47.894;11.424;2023-04-03T14:04:31;4.25;;;2.00;;
21562;SDS011;10942;47.894;11.424;2023-04-03T14:07:13;5.63;;;2.30;;
21562;SDS011;10942;47.894;11.424;2023-04-03T14:09:41;5.93;;;2.33;;
21562;SDS011;10942;47.894;11.424;2023-04-03T14:12:08;3.63;;;1.80;;
21562;SDS011;10942;47.894;11.424;2023-04-03T14:14:40;3.88;;;1.67;;
21562;SDS011;10942;47.894;11.424;2023-04-03T14:17:14;3.95;;;1.92;;
21562;SDS011;10942;47.894;11.424;2023-04-03T14:19:45;4.20;;;1.85;;
21562;SDS011;10942;47.894;11.424;2023-04-03T14:22:13;4.60;;;1.80;;
21562;SDS011;10942;47.894;11.424;2023-04-03T14:24:47;4.10;;;2.08;;
21562;SDS011;10942;47.894;11.424;2023-04-03T14:29:48;3.95;;;1.98;;
21562;SDS011;10942;47.894;11.424;2023-04-03T14:32:15;3.67;;;2.00;;
21562;SDS011;10942;47.894;11.424;2023-04-03T14:34:42;3.95;;;2.28;;
21562;SDS011;10942;47.894;11.424;2023-04-03T14:37:10;4.75;;;2.17;;
21562;SDS011;10942;47.894;11.424;2023-04-03T14:39:40;3.03;;;1.65;;
21562;SDS011;10942;47.894;11.424;2023-04-03T14:42:10;3.63;;;1.70;;
21562;SDS011;10942;47.894;11.424;2023-04-03T14:44:38;5.87;;;1.80;;
21562;SDS011;10942;47.894;11.424;2023-04-03T14:47:04;4.68;;;2.13;;
21562;SDS011;10942;47.894;11.424;2023-04-03T14:49:30;2.15;;;1.33;;
21562;SDS011;10942;47.894;11.424;2023-04-03T14:51:56;3.10;;;1.73;;
21562;SDS011;10942;47.894;11.424;2023-04-03T14:54:23;4.53;;;1.75;;
21562;SDS011;10942;47.894;11.424;2023-04-03T14:56:53;3.33;;;1.98;;
21562;SDS011;10942;47.894;11.424;2023-04-03T14:59:20;4.47;;;2.22;;
21562;SDS011;10942;47.894;11.424;2023-04-03T15:01:47;4.15;;;2.10;;
21562;SDS011;10942;47.894;11.424;2023-04-03T15:04:17;3.58;;;2.17;;
21562;SDS011;10942;47.894;11.424;2023-04-03T15:06:44;5.55;;;2.10;;
21562;SDS011;10942;47.894;11.424;2023-04-03T15:09:20;5.00;;;2.25;;
21562;SDS011;10942;47.894;11.424;2023-04-03T15:11:49;5.38;;;2.60;;
21562;SDS011;10942;47.894;11.424;2023-04-03T15:14:16;7.07;;;2.45;;
21562;SDS011;10942;47.894;11.424;2023-04-03T15:16:42;4.68;;;2.63;;
21562;SDS011;10942;47.894;11.424;2023-04-03T15:19:08;3.97;;;1.50;;
21562;SDS011;10942;47.894;11.424;2023-04-03T15:21:34;3.13;;;1.58;;
21562;SDS011;10942;47.894;11.424;2023-04-03T15:24:01;4.32;;;1.90;;
21562;SDS011;10942;47.894;11.424;2023-04-03T15:26:26;2.53;;;1.33;;
21562;SDS011;10942;47.894;11.424;2023-04-03T15:28:52;4.03;;;1.92;;
21562;SDS011;10942;47.894;11.424;2023-04-03T15:31:18;24.50;;;10.65;;
21562;SDS011;10942;47.894;11.424;2023-04-03T15:33:44;4.53;;;2.13;;
21562;SDS011;10942;47.894;11.424;2023-04-03T15:36:10;4.38;;;1.70;;
21562;SDS011;10942;47.894;11.424;2023-04-03T15:38:36;3.30;;;1.52;;
21562;SDS011;10942;47.894;11.424;2023-04-03T15:41:03;2.92;;;1.65;;
21562;SDS011;10942;47.894;11.424;2023-04-03T15:43:30;4.22;;;1.80;;
21562;SDS011;10942;47.894;11.424;2023-04-03T15:45:56;6.00;;;2.50;;
21562;SDS011;10942;47.894;11.424;2023-04-03T15:48:23;5.43;;;2.17;;
21562;SDS011;10942;47.894;11.424;2023-04-03T15:50:49;3.80;;;1.85;;
21562;SDS011;10942;47.894;11.424;2023-04-03T15:53:15;5.45;;;1.55;;
21562;SDS011;10942;47.894;11.424;2023-04-03T15:55:41;6.63;;;2.55;;
21562;SDS011;10942;47.894;11.424;2023-04-03T15:58:06;3.35;;;1.38;;
21562;SDS011;10942;47.894;11.424;2023-04-03T16:00:32;3.08;;;1.23;;
21562;SDS011;10942;47.894;11.424;2023-04-03T16:02:59;2.85;;;1.48;;
21562;SDS011;10942;47.894;11.424;2023-04-03T16:05:29;3.53;;;1.50;;
21562;SDS011;10942;47.894;11.424;2023-04-03T16:07:55;3.50;;;1.67;;
21562;SDS011;10942;47.894;11.424;2023-04-03T16:10:23;3.90;;;1.45;;
21562;SDS011;10942;47.894;11.424;2023-04-03T16:12:49;3.03;;;1.52;;
21562;SDS011;10942;47.894;11.424;2023-04-03T16:15:14;4.13;;;1.70;;
21562;SDS011;10942;47.894;11.424;2023-04-03T16:17:40;6.60;;;1.73;;